Time;durP1;ratioP1;P1;durP2;ratioP2;P2;SDS_P1;SDS_P2;PMS_P1;PMS_P2;Temp;Humidity;BMP_temperature;BMP_pressure;BME280_temperature;BME280_humidity;BME280_pressure;Samples;Min_cycle;Max_cycle;Signal;HPM_P1;HPM_P2
2021/07/18 00:00:29;;;;;;;15.44;9.60;;;;;;;;;;348444;154;859299;-59
2021/07/18 00:01:30;;;;;;;14.23;9.40;;;;;;;;;;345906;152;866014;-60
2021/07/18 00:02:32;;;;;;;14.81;9.00;;;;;;;;;;350216;154;857251;-60
2021/07/18 00:03:34;;;;;;;14.59;9.03;;;;;;;;;;346962;154;857398;-60
2021/07/18 00:04:35;;;;;;;12.64;8.71;;;;;;;;;;348553;151;857252;-60
2021/07/18 00:05:37;;;;;;;14.19;8.21;;;;;;;;;;350323;151;857267;-60
2021/07/18 00:06:38;;;;;;;14.86;8.94;;;;;;;;;;350253;154;859026;-60
2021/07/18 00:07:40;;;;;;;17.64;9.27;;;;;;;;;;347641;154;865847;-60
2021/07/18 00:08:42;;;;;;;14.69;9.17;;;;;;;;;;347823;152;857496;-60
2021/07/18 00:09:43;;;;;;;16.60;9.44;;;;;;;;;;348545;154;859967;-60
2021/07/18 00:10:46;;;;;;;15.41;9.47;;;;;;;;;;354349;151;858519;-60
2021/07/18 00:11:47;;;;;;;15.17;8.89;;;;;;;;;;346646;151;858145;-60
2021/07/18 00:12:49;;;;;;;14.14;9.44;;;;;;;;;;344014;152;857343;-60
2021/07/18 00:13:50;;;;;;;11.79;9.29;;;;;;;;;;346107;154;865099;-60
2021/07/18 00:14:52;;;;;;;14.56;9.11;;;;;;;;;;343571;154;857196;-60
2021/07/18 00:15:54;;;;;;;13.55;8.98;;;;;;;;;;339334;155;857329;-60
2021/07/18 00:16:56;;;;;;;12.22;9.39;;;;;;;;;;343716;156;857089;-59
2021/07/18 00:17:57;;;;;;;15.49;9.15;;;;;;;;;;343537;154;857392;-60
2021/07/18 00:18:59;;;;;;;14.78;10.09;;;;;;;;;;348810;153;859154;-60
2021/07/18 00:20:00;;;;;;;13.21;9.99;;;;;;;;;;346989;154;858678;-60
2021/07/18 00:21:02;;;;;;;10.93;8.80;;;;;;;;;;350327;154;866856;-60
2021/07/18 00:22:04;;;;;;;14.98;8.49;;;;;;;;;;347667;154;860364;-60
2021/07/18 00:23:05;;;;;;;15.27;10.11;;;;;;;;;;349323;152;858602;-60
2021/07/18 00:24:07;;;;;;;14.50;9.93;;;;;;;;;;350097;154;866759;-60
2021/07/18 00:25:09;;;;;;;18.02;9.39;;;;;;;;;;348579;153;865641;-60
2021/07/18 00:26:11;;;;;;;15.57;10.08;;;;;;;;;;342120;155;857517;-60
2021/07/18 00:27:13;;;;;;;16.46;10.18;;;;;;;;;;341378;155;858951;-60
2021/07/18 00:28:14;;;;;;;14.56;10.35;;;;;;;;;;341417;155;857266;-59
2021/07/18 00:29:16;;;;;;;15.01;10.56;;;;;;;;;;343775;155;857267;-59
2021/07/18 00:30:18;;;;;;;14.60;10.42;;;;;;;;;;339818;154;857325;-59
2021/07/18 00:31:19;;;;;;;13.09;10.69;;;;;;;;;;340322;155;864875;-59
2021/07/18 00:32:21;;;;;;;17.64;11.74;;;;;;;;;;344236;155;857354;-60
2021/07/18 00:33:22;;;;;;;20.92;10.34;;;;;;;;;;342521;154;859151;-60
2021/07/18 00:34:24;;;;;;;17.19;10.80;;;;;;;;;;338669;156;860002;-60
2021/07/18 00:35:25;;;;;;;16.80;11.75;;;;;;;;;;342117;156;859969;-60
2021/07/18 00:36:27;;;;;;;17.41;10.50;;;;;;;;;;341733;155;858293;-59
2021/07/18 00:37:29;;;;;;;16.91;10.59;;;;;;;;;;343427;156;864600;-60
2021/07/18 00:38:30;;;;;;;20.85;11.03;;;;;;;;;;339870;153;857364;-60
2021/07/18 00:39:32;;;;;;;19.85;10.33;;;;;;;;;;342340;156;858262;-59
2021/07/18 00:40:34;;;;;;;16.53;11.04;;;;;;;;;;343702;155;858121;-60
2021/07/18 00:41:36;;;;;;;18.00;11.21;;;;;;;;;;348412;153;857311;-60
2021/07/18 00:42:37;;;;;;;17.68;11.89;;;;;;;;;;342404;154;859182;-60
2021/07/18 00:43:39;;;;;;;20.03;12.84;;;;;;;;;;343442;156;857644;-60
2021/07/18 00:44:40;;;;;;;16.64;11.24;;;;;;;;;;344689;156;857324;-59
2021/07/18 00:45:42;;;;;;;16.06;10.98;;;;;;;;;;342073;156;857441;-60
2021/07/18 00:46:44;;;;;;;19.05;11.78;;;;;;;;;;342246;156;858905;-60
2021/07/18 00:47:45;;;;;;;15.83;11.68;;;;;;;;;;342981;156;864491;-59
2021/07/18 00:48:47;;;;;;;17.29;11.99;;;;;;;;;;347667;153;857283;-59
2021/07/18 00:49:48;;;;;;;21.26;11.46;;;;;;;;;;358578;148;859418;-59
2021/07/18 00:50:51;;;;;;;20.19;12.25;;;;;;;;;;359386;147;859764;-60
2021/07/18 00:51:53;;;;;;;18.94;12.56;;;;;;;;;;359135;148;859780;-59
2021/07/18 00:52:54;;;;;;;23.55;12.41;;;;;;;;;;359223;150;857420;-59
2021/07/18 00:53:56;;;;;;;19.44;11.94;;;;;;;;;;358073;148;857372;-60
2021/07/18 00:54:58;;;;;;;16.97;11.80;;;;;;;;;;351760;151;864646;-60
2021/07/18 00:55:59;;;;;;;17.51;12.56;;;;;;;;;;351616;149;857330;-60
2021/07/18 00:57:01;;;;;;;22.28;12.03;;;;;;;;;;360467;147;865136;-60
2021/07/18 00:58:03;;;;;;;22.61;11.88;;;;;;;;;;358129;149;865601;-60
2021/07/18 00:59:05;;;;;;;17.35;12.31;;;;;;;;;;356943;151;858395;-60
2021/07/18 01:00:08;;;;;;;17.40;11.76;;;;;;;;;;357220;147;859532;-60
2021/07/18 01:01:09;;;;;;;19.75;12.09;;;;;;;;;;357228;150;857311;-60
2021/07/18 01:02:11;;;;;;;16.56;12.52;;;;;;;;;;357209;147;858965;-60
2021/07/18 01:03:12;;;;;;;16.06;10.28;;;;;;;;;;358655;148;857205;-60
2021/07/18 01:04:14;;;;;;;17.15;11.05;;;;;;;;;;359964;148;857817;-60
2021/07/18 01:05:16;;;;;;;16.16;10.68;;;;;;;;;;355765;147;865352;-60
2021/07/18 01:06:18;;;;;;;15.43;9.87;;;;;;;;;;361193;148;859067;-59
2021/07/18 01:07:20;;;;;;;14.54;8.94;;;;;;;;;;358927;147;857192;-60
2021/07/18 01:08:21;;;;;;;13.00;9.89;;;;;;;;;;357462;149;858948;-60
2021/07/18 01:09:23;;;;;;;17.69;10.21;;;;;;;;;;359109;147;858942;-59
2021/07/18 01:10:25;;;;;;;14.32;8.86;;;;;;;;;;360845;147;867390;-60
2021/07/18 01:11:26;;;;;;;12.73;9.59;;;;;;;;;;356668;148;857630;-60
2021/07/18 01:12:28;;;;;;;13.64;9.56;;;;;;;;;;354687;149;865393;-60
2021/07/18 01:13:30;;;;;;;13.49;9.52;;;;;;;;;;352893;152;857293;-60
2021/07/18 01:14:31;;;;;;;19.93;10.52;;;;;;;;;;358092;148;857383;-60
2021/07/18 01:15:33;;;;;;;15.86;10.63;;;;;;;;;;354824;149;857331;-59
2021/07/18 01:16:35;;;;;;;17.34;10.71;;;;;;;;;;352818;152;864860;-61
2021/07/18 01:17:37;;;;;;;17.26;10.93;;;;;;;;;;355568;147;857284;-60
2021/07/18 01:18:39;;;;;;;16.76;11.19;;;;;;;;;;358744;147;857262;-60
2021/07/18 01:19:41;;;;;;;17.65;10.81;;;;;;;;;;356926;150;857204;-60
2021/07/18 01:20:43;;;;;;;13.29;9.35;;;;;;;;;;359136;150;857302;-60
2021/07/18 01:21:45;;;;;;;15.15;9.16;;;;;;;;;;359952;147;864908;-60
2021/07/18 01:22:48;;;;;;;14.51;9.49;;;;;;;;;;359237;149;857430;-59
2021/07/18 01:23:50;;;;;;;15.69;9.40;;;;;;;;;;358377;150;857248;-60
2021/07/18 01:24:52;;;;;;;14.56;10.53;;;;;;;;;;360326;147;857256;-59
2021/07/18 01:25:53;;;;;;;17.99;11.99;;;;;;;;;;358619;147;857390;-60
2021/07/18 01:26:55;;;;;;;16.95;11.95;;;;;;;;;;359018;150;857251;-59
2021/07/18 01:27:57;;;;;;;16.71;12.37;;;;;;;;;;359347;147;857292;-60
2021/07/18 01:28:59;;;;;;;15.22;12.54;;;;;;;;;;358488;148;859126;-60
2021/07/18 01:30:00;;;;;;;16.44;12.58;;;;;;;;;;359144;150;858076;-60
2021/07/18 01:31:02;;;;;;;21.29;12.96;;;;;;;;;;359398;150;858789;-60
2021/07/18 01:32:04;;;;;;;19.25;12.06;;;;;;;;;;359228;147;858708;-60
2021/07/18 01:33:05;;;;;;;18.89;12.67;;;;;;;;;;357508;147;857341;-59
2021/07/18 01:34:07;;;;;;;17.48;12.29;;;;;;;;;;358475;150;858029;-60
2021/07/18 01:35:09;;;;;;;20.34;12.72;;;;;;;;;;359272;148;857367;-60
2021/07/18 01:36:11;;;;;;;18.15;12.65;;;;;;;;;;356789;149;857351;-60
2021/07/18 01:37:13;;;;;;;20.35;12.59;;;;;;;;;;357069;150;865430;-59
2021/07/18 01:38:14;;;;;;;21.31;13.46;;;;;;;;;;359812;147;857185;-60
2021/07/18 01:39:16;;;;;;;20.96;13.31;;;;;;;;;;358659;148;857243;-60
2021/07/18 01:40:18;;;;;;;24.63;13.32;;;;;;;;;;358549;148;857286;-60
2021/07/18 01:41:19;;;;;;;23.47;13.80;;;;;;;;;;359412;150;857156;-61
2021/07/18 01:42:23;;;;;;;18.55;12.86;;;;;;;;;;359272;147;857234;-60
2021/07/18 01:43:24;;;;;;;15.89;12.88;;;;;;;;;;355138;149;857302;-60
2021/07/18 01:44:26;;;;;;;17.94;11.71;;;;;;;;;;352899;152;857589;-60
2021/07/18 01:45:28;;;;;;;20.33;12.41;;;;;;;;;;357125;148;857292;-60
2021/07/18 01:46:30;;;;;;;18.70;13.26;;;;;;;;;;356843;150;859786;-60
2021/07/18 01:47:31;;;;;;;19.11;12.76;;;;;;;;;;358857;150;859060;-59
2021/07/18 01:48:33;;;;;;;21.36;12.84;;;;;;;;;;361512;147;857427;-59
2021/07/18 01:49:34;;;;;;;19.64;12.31;;;;;;;;;;358852;147;859694;-60
2021/07/18 01:50:37;;;;;;;19.56;11.68;;;;;;;;;;356554;150;858664;-60
2021/07/18 01:51:38;;;;;;;19.71;12.76;;;;;;;;;;357992;150;859594;-59
2021/07/18 01:52:40;;;;;;;20.20;13.31;;;;;;;;;;358894;148;857342;-61
2021/07/18 01:53:41;;;;;;;20.51;12.92;;;;;;;;;;356736;148;857276;-60
2021/07/18 01:54:43;;;;;;;23.30;13.75;;;;;;;;;;355565;150;857414;-60
2021/07/18 01:55:45;;;;;;;23.67;13.01;;;;;;;;;;353759;147;857691;-60
2021/07/18 01:56:46;;;;;;;22.79;12.28;;;;;;;;;;359250;147;865029;-59
2021/07/18 01:57:48;;;;;;;20.85;12.60;;;;;;;;;;358490;149;866176;-59
2021/07/18 01:58:50;;;;;;;28.63;13.21;;;;;;;;;;359068;150;857291;-59
2021/07/18 01:59:52;;;;;;;20.85;13.19;;;;;;;;;;359126;147;857265;-59
2021/07/18 02:00:55;;;;;;;20.59;13.61;;;;;;;;;;355820;149;857276;-60
2021/07/18 02:01:56;;;;;;;21.93;13.39;;;;;;;;;;358603;150;857220;-60
2021/07/18 02:02:58;;;;;;;17.60;12.31;;;;;;;;;;352446;151;857320;-59
2021/07/18 02:04:00;;;;;;;24.57;13.37;;;;;;;;;;349476;152;857824;-61
2021/07/18 02:05:04;;;;;;;23.65;13.95;;;;;;;;;;352950;152;857446;-60
2021/07/18 02:06:06;;;;;;;23.91;13.05;;;;;;;;;;354643;150;864904;-60
2021/07/18 02:07:07;;;;;;;26.24;14.55;;;;;;;;;;357125;148;865451;-60
2021/07/18 02:08:09;;;;;;;21.03;13.64;;;;;;;;;;357975;149;859114;-59
2021/07/18 02:09:10;;;;;;;26.08;13.44;;;;;;;;;;354947;150;858277;-60
2021/07/18 02:10:13;;;;;;;21.46;13.19;;;;;;;;;;357571;148;860088;-60
2021/07/18 02:11:15;;;;;;;19.22;14.00;;;;;;;;;;357103;149;860468;-59
2021/07/18 02:12:17;;;;;;;27.71;14.21;;;;;;;;;;358587;150;858602;-60
2021/07/18 02:13:19;;;;;;;22.30;13.89;;;;;;;;;;358521;147;859802;-59
2021/07/18 02:14:22;;;;;;;23.43;14.08;;;;;;;;;;357422;148;857385;-60
2021/07/18 02:15:24;;;;;;;23.46;14.11;;;;;;;;;;357808;149;857216;-60
2021/07/18 02:16:29;;;;;;;20.87;13.85;;;;;;;;;;358422;150;865124;-59
2021/07/18 02:17:30;;;;;;;23.22;14.02;;;;;;;;;;359128;147;857349;-59
2021/07/18 02:18:32;;;;;;;23.34;13.65;;;;;;;;;;357065;149;857058;-60
2021/07/18 02:19:34;;;;;;;22.51;13.99;;;;;;;;;;359769;149;857162;-60
2021/07/18 02:20:35;;;;;;;23.95;13.34;;;;;;;;;;359284;147;857341;-60
2021/07/18 02:21:38;;;;;;;21.01;13.34;;;;;;;;;;359884;147;857399;-60
2021/07/18 02:22:47;;;;;;;25.39;13.37;;;;;;;;;;358373;150;857281;-61
2021/07/18 02:23:48;;;;;;;20.86;14.02;;;;;;;;;;358379;147;864556;-60
2021/07/18 02:24:50;;;;;;;21.65;12.59;;;;;;;;;;359283;147;859888;-60
2021/07/18 02:25:52;;;;;;;22.23;12.91;;;;;;;;;;353582;149;859310;-59
2021/07/18 02:26:54;;;;;;;25.58;14.73;;;;;;;;;;357193;147;859035;-60
2021/07/18 02:27:55;;;;;;;27.89;12.73;;;;;;;;;;359496;147;858729;-60
2021/07/18 02:28:57;;;;;;;24.06;12.93;;;;;;;;;;355466;147;859390;-60
2021/07/18 02:29:59;;;;;;;19.45;12.45;;;;;;;;;;357894;150;859013;-60
2021/07/18 02:31:04;;;;;;;17.19;11.10;;;;;;;;;;357913;147;865353;-61
2021/07/18 02:32:06;;;;;;;16.07;10.62;;;;;;;;;;357917;148;857514;-60
2021/07/18 02:33:08;;;;;;;17.13;10.83;;;;;;;;;;357520;147;858992;-59
2021/07/18 02:34:10;;;;;;;14.81;10.93;;;;;;;;;;358387;147;857066;-59
2021/07/18 02:35:12;;;;;;;19.55;11.01;;;;;;;;;;358402;147;857393;-59
2021/07/18 02:36:15;;;;;;;15.09;10.11;;;;;;;;;;357565;149;858409;-60
2021/07/18 02:37:16;;;;;;;19.19;11.26;;;;;;;;;;358869;150;858391;-60
2021/07/18 02:38:18;;;;;;;20.70;12.07;;;;;;;;;;358368;147;857471;-60
2021/07/18 02:39:21;;;;;;;18.70;11.82;;;;;;;;;;356843;148;857263;-61
2021/07/18 02:40:23;;;;;;;19.38;12.11;;;;;;;;;;356254;149;858956;-60
2021/07/18 02:41:25;;;;;;;21.43;12.59;;;;;;;;;;359475;148;857272;-60
2021/07/18 02:42:27;;;;;;;17.91;12.69;;;;;;;;;;359281;147;858657;-60
2021/07/18 02:43:28;;;;;;;21.89;13.11;;;;;;;;;;356932;149;859123;-60
2021/07/18 02:44:30;;;;;;;20.46;13.03;;;;;;;;;;358754;150;860271;-59
2021/07/18 02:45:32;;;;;;;24.71;13.29;;;;;;;;;;358759;147;858792;-60
2021/07/18 02:46:34;;;;;;;21.56;12.81;;;;;;;;;;356651;149;859285;-60
2021/07/18 02:47:36;;;;;;;21.31;13.18;;;;;;;;;;358065;147;858474;-60
2021/07/18 02:48:38;;;;;;;20.78;12.79;;;;;;;;;;358400;148;864866;-60
2021/07/18 02:49:39;;;;;;;22.40;12.74;;;;;;;;;;357945;148;857268;-60
2021/07/18 02:50:43;;;;;;;23.00;12.96;;;;;;;;;;352943;150;857306;-61
2021/07/18 02:51:44;;;;;;;22.24;12.06;;;;;;;;;;357140;150;858017;-60
2021/07/18 02:52:46;;;;;;;21.96;12.44;;;;;;;;;;353636;150;857339;-62
2021/07/18 02:53:47;;;;;;;22.92;12.19;;;;;;;;;;357471;148;857420;-61
2021/07/18 02:54:50;;;;;;;26.04;12.38;;;;;;;;;;355261;150;865647;-61
2021/07/18 02:55:52;;;;;;;31.12;12.58;;;;;;;;;;353359;148;858170;-61
2021/07/18 02:56:54;;;;;;;18.13;11.92;;;;;;;;;;357144;148;857295;-63
2021/07/18 02:57:56;;;;;;;20.17;13.05;;;;;;;;;;355073;150;859043;-63
2021/07/18 02:58:57;;;;;;;22.26;11.86;;;;;;;;;;353497;150;858786;-63
2021/07/18 02:59:59;;;;;;;18.49;10.82;;;;;;;;;;354605;149;859627;-62
2021/07/18 03:01:00;;;;;;;21.76;11.36;;;;;;;;;;356513;150;857376;-62
2021/07/18 03:02:02;;;;;;;24.61;11.24;;;;;;;;;;356983;150;865064;-61
2021/07/18 03:03:05;;;;;;;22.51;11.22;;;;;;;;;;355170;149;864891;-62
2021/07/18 03:04:07;;;;;;;17.36;11.30;;;;;;;;;;356066;148;865811;-61
2021/07/18 03:05:10;;;;;;;19.83;11.25;;;;;;;;;;356285;150;856563;-61
2021/07/18 03:06:13;;;;;;;24.75;12.42;;;;;;;;;;357466;148;858345;-62
2021/07/18 03:07:15;;;;;;;22.11;11.85;;;;;;;;;;354948;149;857413;-62
2021/07/18 03:08:16;;;;;;;26.97;12.39;;;;;;;;;;354861;148;858405;-62
2021/07/18 03:09:20;;;;;;;20.79;11.64;;;;;;;;;;356875;150;857278;-62
2021/07/18 03:10:21;;;;;;;22.22;12.14;;;;;;;;;;356728;148;857273;-62
2021/07/18 03:11:23;;;;;;;18.64;11.51;;;;;;;;;;355919;150;858107;-63
2021/07/18 03:12:25;;;;;;;20.45;11.21;;;;;;;;;;357840;150;857186;-61
2021/07/18 03:13:26;;;;;;;23.23;11.19;;;;;;;;;;356025;150;857293;-61
2021/07/18 03:14:28;;;;;;;20.06;11.37;;;;;;;;;;355134;148;866306;-62
2021/07/18 03:15:30;;;;;;;19.36;10.85;;;;;;;;;;356256;150;857347;-63
2021/07/18 03:16:32;;;;;;;19.91;10.76;;;;;;;;;;355416;148;859055;-61
2021/07/18 03:17:33;;;;;;;26.59;11.14;;;;;;;;;;355404;150;859083;-60
2021/07/18 03:18:35;;;;;;;22.72;11.35;;;;;;;;;;356830;150;858456;-61
2021/07/18 03:19:36;;;;;;;20.72;11.46;;;;;;;;;;353445;150;859386;-61
2021/07/18 03:20:40;;;;;;;19.83;10.72;;;;;;;;;;354385;148;858828;-61
2021/07/18 03:21:42;;;;;;;21.64;11.49;;;;;;;;;;356275;149;857274;-61
2021/07/18 03:22:43;;;;;;;20.32;10.99;;;;;;;;;;352941;150;859086;-60
2021/07/18 03:23:45;;;;;;;18.13;10.81;;;;;;;;;;355415;150;858597;-61
2021/07/18 03:24:47;;;;;;;19.34;11.04;;;;;;;;;;356275;148;864832;-60
2021/07/18 03:25:48;;;;;;;21.13;12.01;;;;;;;;;;357033;150;857184;-60
2021/07/18 03:26:51;;;;;;;18.42;10.86;;;;;;;;;;355597;148;857346;-61
2021/07/18 03:27:52;;;;;;;20.67;10.79;;;;;;;;;;356727;150;857204;-60
2021/07/18 03:28:54;;;;;;;25.21;11.71;;;;;;;;;;353777;150;857257;-61
2021/07/18 03:29:55;;;;;;;23.04;11.76;;;;;;;;;;352081;148;864733;-60
2021/07/18 03:30:57;;;;;;;16.90;11.22;;;;;;;;;;357913;148;857314;-60
2021/07/18 03:31:59;;;;;;;22.84;11.44;;;;;;;;;;354007;149;859136;-60
2021/07/18 03:33:00;;;;;;;22.51;10.60;;;;;;;;;;355927;149;859196;-60
2021/07/18 03:34:02;;;;;;;17.83;11.12;;;;;;;;;;356078;148;860075;-60
2021/07/18 03:35:06;;;;;;;18.16;11.35;;;;;;;;;;355492;148;859799;-61
2021/07/18 03:36:08;;;;;;;22.62;11.76;;;;;;;;;;354812;150;859142;-62
2021/07/18 03:37:09;;;;;;;25.99;11.46;;;;;;;;;;356420;149;856487;-61
2021/07/18 03:38:11;;;;;;;19.47;10.81;;;;;;;;;;354983;149;864907;-60
2021/07/18 03:39:12;;;;;;;27.23;11.63;;;;;;;;;;355204;149;857223;-60
2021/07/18 03:40:15;;;;;;;21.34;11.25;;;;;;;;;;354986;149;857182;-60
2021/07/18 03:41:19;;;;;;;20.16;11.05;;;;;;;;;;355980;149;857834;-60
2021/07/18 03:42:20;;;;;;;21.27;11.37;;;;;;;;;;355865;150;859502;-60
2021/07/18 03:43:22;;;;;;;22.76;11.01;;;;;;;;;;355883;150;857250;-60
2021/07/18 03:44:23;;;;;;;16.48;10.80;;;;;;;;;;354557;148;858704;-61
2021/07/18 03:45:25;;;;;;;18.31;11.22;;;;;;;;;;357879;148;857443;-61
2021/07/18 03:46:27;;;;;;;22.24;10.66;;;;;;;;;;355101;150;857455;-60
2021/07/18 03:47:28;;;;;;;22.91;11.00;;;;;;;;;;355858;150;864802;-61
2021/07/18 03:48:32;;;;;;;21.26;11.22;;;;;;;;;;355158;148;864847;-62
2021/07/18 03:49:33;;;;;;;13.66;10.66;;;;;;;;;;355120;149;857377;-61
2021/07/18 03:50:36;;;;;;;14.23;10.41;;;;;;;;;;352658;149;857223;-61
2021/07/18 03:51:38;;;;;;;20.83;10.74;;;;;;;;;;352259;149;865002;-61
2021/07/18 03:52:39;;;;;;;17.92;10.41;;;;;;;;;;351820;150;866156;-62
2021/07/18 03:53:41;;;;;;;14.13;10.07;;;;;;;;;;351815;152;858291;-62
2021/07/18 03:54:42;;;;;;;18.70;10.36;;;;;;;;;;351582;149;858179;-62
2021/07/18 03:55:44;;;;;;;20.29;10.72;;;;;;;;;;351714;150;859172;-61
2021/07/18 03:56:46;;;;;;;15.38;10.35;;;;;;;;;;352450;149;858717;-61
2021/07/18 03:57:47;;;;;;;14.74;10.29;;;;;;;;;;355284;150;858682;-61
2021/07/18 03:58:50;;;;;;;18.39;10.39;;;;;;;;;;351969;149;858310;-61
2021/07/18 03:59:51;;;;;;;18.69;10.53;;;;;;;;;;349696;149;857379;-62
2021/07/18 04:00:53;;;;;;;21.98;11.18;;;;;;;;;;352472;149;857259;-62
2021/07/18 04:01:55;;;;;;;19.91;10.68;;;;;;;;;;351552;151;857220;-61
2021/07/18 04:02:56;;;;;;;17.28;11.17;;;;;;;;;;352310;149;857302;-61
2021/07/18 04:03:58;;;;;;;20.33;10.95;;;;;;;;;;355590;150;857352;-61
2021/07/18 04:05:00;;;;;;;19.75;11.03;;;;;;;;;;352204;152;857489;-61
2021/07/18 04:06:03;;;;;;;20.66;10.74;;;;;;;;;;352136;151;857751;-61
2021/07/18 04:07:04;;;;;;;26.55;10.76;;;;;;;24.23;100.00;151687.41;349826;149;860082;-60
2021/07/18 04:08:06;;;;;;;17.20;9.54;;;;;;;;;;351307;152;858008;-61
2021/07/18 04:09:08;;;;;;;18.46;9.27;;;;;;;;;;350433;152;865963;-60
2021/07/18 04:10:09;;;;;;;17.90;10.13;;;;;;;;;;352031;149;859099;-61
2021/07/18 04:11:11;;;;;;;19.80;9.70;;;;;;;;;;355817;150;858868;-60
2021/07/18 04:12:13;;;;;;;17.79;10.51;;;;;;;;;;354375;150;857281;-60
2021/07/18 04:13:14;;;;;;;17.26;10.04;;;;;;;;;;350658;149;864551;-61
2021/07/18 04:14:16;;;;;;;17.97;9.91;;;;;;;;;;351380;150;857146;-62
2021/07/18 04:15:18;;;;;;;20.47;10.18;;;;;;;;;;353530;149;857762;-60
2021/07/18 04:16:20;;;;;;;18.33;10.61;;;;;;;;;;359818;145;865125;-60
2021/07/18 04:17:22;;;;;;;24.17;11.39;;;;;;;;;;362445;146;864424;-60
2021/07/18 04:18:23;;;;;;;19.13;11.06;;;;;;;;;;355240;149;859626;-59
2021/07/18 04:19:25;;;;;;;19.48;10.31;;;;;;;;;;367720;145;857264;-60
2021/07/18 04:20:27;;;;;;;23.40;10.34;;;;;;;;;;361587;146;857314;-60
2021/07/18 04:21:28;;;;;;;21.18;10.73;;;;;;;;;;363583;146;864585;-60
2021/07/18 04:22:30;;;;;;;18.46;10.99;;;;;;;;;;364111;146;857345;-60
2021/07/18 04:23:31;;;;;;;18.41;10.59;;;;;;;;;;363618;145;857794;-62
2021/07/18 04:24:33;;;;;;;22.89;10.45;;;;;;;;;;363466;145;858987;-62
2021/07/18 04:25:35;;;;;;;25.09;11.19;;;;;;;;;;363883;147;859623;-63
2021/07/18 04:26:36;;;;;;;24.77;11.41;;;;;;;;;;363459;145;860379;-64
2021/07/18 04:27:38;;;;;;;21.20;11.64;;;;;;;;;;363351;145;860815;-65
2021/07/18 04:28:39;;;;;;;18.39;10.53;;;;;;;;;;352927;149;858594;-67
2021/07/18 04:29:41;;;;;;;20.79;11.05;;;;;;;;;;356687;148;857718;-64
2021/07/18 04:30:43;;;;;;;16.76;10.41;;;;;;;;;;362616;145;857349;-63
2021/07/18 04:31:45;;;;;;;17.21;10.70;;;;;;;;;;361381;146;857816;-65
2021/07/18 04:32:47;;;;;;;19.72;10.45;;;;;;;;;;360321;147;857303;-64
2021/07/18 04:33:50;;;;;;;17.63;10.29;;;;;;;;;;361672;145;857813;-62
2021/07/18 04:34:52;;;;;;;21.10;10.24;;;;;;;;;;364963;145;866659;-62
2021/07/18 04:35:54;;;;;;;18.96;11.79;;;;;;;;;;359772;146;857281;-62
2021/07/18 04:36:55;;;;;;;18.50;10.96;;;;;;;;;;363344;145;858468;-63
2021/07/18 04:37:57;;;;;;;20.68;11.31;;;;;;;;;;360879;146;864949;-60
2021/07/18 04:38:59;;;;;;;18.06;10.85;;;;;;;;;;362868;145;860015;-61
2021/07/18 04:40:01;;;;;;;21.16;10.80;;;;;;;;;;362497;145;860633;-61
2021/07/18 04:41:02;;;;;;;17.72;10.39;;;;;;;;;;363928;145;859438;-60
2021/07/18 04:42:04;;;;;;;19.34;10.78;;;;;;;;;;363522;145;858353;-61
2021/07/18 04:43:06;;;;;;;23.79;11.02;;;;;;;;;;361030;146;864855;-61
2021/07/18 04:44:07;;;;;;;19.81;10.54;;;;;;;;;;362410;145;865334;-60
2021/07/18 04:45:09;;;;;;;25.85;11.56;;;;;;;;;;362677;145;857350;-61
2021/07/18 04:46:12;;;;;;;22.33;10.52;;;;;;;;;;362326;145;857396;-62
2021/07/18 04:47:14;;;;;;;18.89;10.87;;;;;;;;;;366192;145;865517;-61
2021/07/18 04:48:15;;;;;;;18.11;10.71;;;;;;;;;;365206;145;857806;-63
2021/07/18 04:49:17;;;;;;;25.73;10.52;;;;;;;;;;356117;148;857348;-62
2021/07/18 04:50:20;;;;;;;22.70;11.44;;;;;;;;;;365142;145;857239;-62
2021/07/18 04:51:22;;;;;;;22.65;10.26;;;;;;;;;;362928;145;857317;-61
2021/07/18 04:52:23;;;;;;;20.39;10.71;;;;;;;;;;361166;146;857236;-61
2021/07/18 04:53:25;;;;;;;18.60;9.97;;;;;;;;;;362912;145;857333;-61
2021/07/18 04:54:27;;;;;;;20.64;11.01;;;;;;;;;;355577;149;857412;-61
2021/07/18 04:55:28;;;;;;;18.95;10.53;;;;;;;;;;355552;148;857343;-61
2021/07/18 04:56:31;;;;;;;19.49;11.07;;;;;;;;;;366285;145;859044;-61
2021/07/18 04:57:32;;;;;;;21.65;10.39;;;;;;;;;;365321;145;857254;-61
2021/07/18 04:58:34;;;;;;;20.16;11.22;;;;;;;;;;363069;145;857739;-62
2021/07/18 04:59:35;;;;;;;26.52;10.97;;;;;;;;;;353705;150;857309;-62
2021/07/18 05:00:37;;;;;;;21.91;11.23;;;;;;;;;;364749;147;865243;-61
2021/07/18 05:01:39;;;;;;;23.07;10.81;;;;;;;;;;363526;146;857420;-61
2021/07/18 05:02:41;;;;;;;18.54;10.97;;;;;;;;;;363135;145;857211;-61
2021/07/18 05:03:42;;;;;;;21.90;10.97;;;;;;;;;;362377;145;857257;-62
2021/07/18 05:04:44;;;;;;;24.29;11.76;;;;;;;;;;363110;145;866912;-59
2021/07/18 05:05:45;;;;;;;17.56;10.91;;;;;;;;;;359310;147;859291;-61
2021/07/18 05:06:47;;;;;;;24.37;11.11;;;;;;;;;;359104;147;858314;-60
2021/07/18 05:07:54;;;;;;;20.41;10.54;;;;;;;;;;358051;147;860041;-61
2021/07/18 05:08:56;;;;;;;20.58;11.29;;;;;;;;;;357547;146;858974;-60
2021/07/18 05:09:57;;;;;;;17.19;11.21;;;;;;;;;;356372;148;859090;-64
2021/07/18 05:10:59;;;;;;;21.95;10.69;;;;;;;;;;353662;148;857297;-64
2021/07/18 05:12:01;;;;;;;19.11;10.75;;;;;;;;;;355807;149;864833;-64
2021/07/18 05:13:02;;;;;;;20.89;11.64;;;;;;;;;;357760;147;859149;-60
2021/07/18 05:14:04;;;;;;;23.07;11.01;;;;;;;;;;361572;147;859300;-61
2021/07/18 05:15:06;;;;;;;16.96;10.95;;;;;;;;;;357906;147;858927;-61
2021/07/18 05:16:08;;;;;;;25.71;11.23;;;;;;;;;;358360;147;859261;-61
2021/07/18 05:17:10;;;;;;;24.16;11.31;;;;;;;;;;358029;148;866214;-61
2021/07/18 05:18:12;;;;;;;20.02;11.29;;;;;;;;;;356960;149;858120;-60
2021/07/18 05:19:13;;;;;;;24.87;10.65;;;;;;;;;;357958;148;857340;-62
2021/07/18 05:20:21;;;;;;;16.61;10.40;;;;;;;;;;358862;147;857251;-65
2021/07/18 05:21:22;;;;;;;20.24;10.48;;;;;;;;;;362508;147;857250;-62
2021/07/18 05:22:23;;;;;;;21.16;11.54;;;;;;;;;;361015;145;857218;-61
2021/07/18 05:23:26;;;;;;;18.91;10.68;;;;;;;;;;364571;145;866502;-62
2021/07/18 05:24:28;;;;;;;19.78;10.94;;;;;;;;;;354807;149;860336;-63
2021/07/18 05:25:30;;;;;;;19.79;10.62;;;;;;;;;;351400;149;858854;-62
2021/07/18 05:26:31;;;;;;;20.53;11.60;;;;;;;;;;365480;145;857353;-61
2021/07/18 05:27:33;;;;;;;24.87;11.84;;;;;;;;;;362999;146;864664;-62
2021/07/18 05:28:35;;;;;;;20.58;10.58;;;;;;;;;;361393;146;857733;-62
2021/07/18 05:29:36;;;;;;;18.89;9.96;;;;;;;;;;361563;145;857439;-62
2021/07/18 05:30:38;;;;;;;20.06;10.39;;;;;;;;;;357488;148;857476;-60
2021/07/18 05:31:40;;;;;;;20.01;11.40;;;;;;;;;;364065;145;864899;-61
2021/07/18 05:32:41;;;;;;;25.88;11.04;;;;;;;;;;363759;145;865500;-60
2021/07/18 05:33:43;;;;;;;21.06;11.28;;;;;;;;;;364540;145;863086;-60
2021/07/18 05:34:44;;;;;;;18.17;11.29;;;;;;;;;;362516;145;858690;-59
2021/07/18 05:35:46;;;;;;;27.11;11.46;;;;;;;;;;357442;145;858378;-59
2021/07/18 05:36:48;;;;;;;18.34;10.93;;;;;;;;;;354745;149;857406;-60
2021/07/18 05:37:50;;;;;;;21.95;10.76;;;;;;;;;;363809;146;864881;-59
2021/07/18 05:38:51;;;;;;;19.13;11.11;;;;;;;;;;363722;147;857417;-59
2021/07/18 05:39:53;;;;;;;18.34;10.61;;;;;;;;;;363253;147;857334;-60
2021/07/18 05:40:55;;;;;;;21.80;11.15;;;;;;;;;;364745;145;857082;-60
2021/07/18 05:41:59;;;;;;;20.85;10.71;;;;;;;;;;362690;147;857343;-60
2021/07/18 05:43:00;;;;;;;17.62;10.76;;;;;;;;;;362981;147;858889;-60
2021/07/18 05:44:02;;;;;;;19.51;11.20;;;;;;;;;;364233;145;857426;-60
2021/07/18 05:45:04;;;;;;;21.76;11.66;;;;;;;;;;355192;149;859296;-59
2021/07/18 05:46:06;;;;;;;20.74;11.32;;;;;;;;;;364483;145;857503;-60
2021/07/18 05:47:09;;;;;;;21.90;11.09;;;;;;;;;;362223;145;865782;-61
2021/07/18 05:48:10;;;;;;;20.65;11.61;;;;;;;;;;363058;145;857376;-62
2021/07/18 05:49:12;;;;;;;25.69;11.42;;;;;;;;;;363418;145;858401;-61
2021/07/18 05:50:13;;;;;;;16.22;10.56;;;;;;;;;;361636;146;864579;-60
2021/07/18 05:51:15;;;;;;;18.37;11.34;;;;;;;;;;364280;145;864909;-61
2021/07/18 05:52:17;;;;;;;19.20;10.89;;;;;;;;;;356589;148;864681;-59
2021/07/18 05:53:18;;;;;;;19.99;11.91;;;;;;;;;;354669;149;857399;-59
2021/07/18 05:54:20;;;;;;;26.01;11.74;;;;;;;;;;364104;145;857413;-60
2021/07/18 05:55:23;;;;;;;24.40;11.41;;;;;;;;;;364607;145;858961;-60